Angus, New Mexico
Current Conditions -  °F | °C
As of 8:15 PM on Friday 21 Nov 2014 (Local Time) from KSRR Reporting Station
Clear Clear  
Wind Chill: 43°   Ceiling: Unl
Heat Index: 43°   Visibility: 10mi
Dew Point: 19°   Wind: 3mph
Humidity: 39%   Direction: 280°W
Pressure: 30.1"   Gusts: NA
Location:  33.7233°N, 105.25°W
Report Text: KSRR 220315Z AUTO 28003KT 10SM CLR 06/M07 A3010 RMK AO2
Loading
Personal Weather Stations






























Interactive Weather Map New forecast layout! Learn more

10-Day Weather Forecast

Advertisements
Track Severe Weather on mobile